sensor_id;sensor_type;location;lat;lon;timestamp;P1;durP1;ratioP1;P2;durP2;ratioP2
3922;SDS011;1976;51.694;6.256;2022-12-05T00:01:10;38.10;;;19.20;;
3922;SDS011;1976;51.694;6.256;2022-12-05T00:03:52;35.87;;;17.20;;
3922;SDS011;1976;51.694;6.256;2022-12-05T00:06:19;36.70;;;18.83;;
3922;SDS011;1976;51.694;6.256;2022-12-05T00:08:46;36.40;;;17.90;;
3922;SDS011;1976;51.694;6.256;2022-12-05T00:11:13;33.80;;;18.20;;
3922;SDS011;1976;51.694;6.256;2022-12-05T00:13:41;40.30;;;19.60;;
3922;SDS011;1976;51.694;6.256;2022-12-05T00:16:07;35.80;;;19.53;;
3922;SDS011;1976;51.694;6.256;2022-12-05T00:18:34;36.40;;;17.83;;
3922;SDS011;1976;51.694;6.256;2022-12-05T00:21:00;32.30;;;16.40;;
3922;SDS011;1976;51.694;6.256;2022-12-05T00:23:26;35.50;;;17.93;;
3922;SDS011;1976;51.694;6.256;2022-12-05T00:25:51;36.20;;;18.20;;
3922;SDS011;1976;51.694;6.256;2022-12-05T00:28:17;43.17;;;19.17;;
3922;SDS011;1976;51.694;6.256;2022-12-05T00:30:42;45.93;;;19.97;;
3922;SDS011;1976;51.694;6.256;2022-12-05T00:33:08;43.50;;;20.87;;
3922;SDS011;1976;51.694;6.256;2022-12-05T00:35:33;36.90;;;18.80;;
3922;SDS011;1976;51.694;6.256;2022-12-05T00:37:59;42.13;;;18.63;;
3922;SDS011;1976;51.694;6.256;2022-12-05T00:40:25;31.80;;;17.10;;
3922;SDS011;1976;51.694;6.256;2022-12-05T00:42:51;31.80;;;17.60;;
3922;SDS011;1976;51.694;6.256;2022-12-05T00:45:16;33.10;;;18.20;;
3922;SDS011;1976;51.694;6.256;2022-12-05T00:47:42;39.13;;;18.93;;
3922;SDS011;1976;51.694;6.256;2022-12-05T00:50:07;37.47;;;17.87;;
3922;SDS011;1976;51.694;6.256;2022-12-05T00:52:33;37.63;;;19.47;;
3922;SDS011;1976;51.694;6.256;2022-12-05T00:54:59;39.77;;;18.37;;
3922;SDS011;1976;51.694;6.256;2022-12-05T00:57:24;38.67;;;19.57;;
3922;SDS011;1976;51.694;6.256;2022-12-05T00:59:50;36.13;;;18.37;;
3922;SDS011;1976;51.694;6.256;2022-12-05T01:02:16;37.47;;;18.47;;
3922;SDS011;1976;51.694;6.256;2022-12-05T01:04:42;48.00;;;21.33;;
3922;SDS011;1976;51.694;6.256;2022-12-05T01:07:08;42.53;;;19.97;;
3922;SDS011;1976;51.694;6.256;2022-12-05T01:09:34;43.90;;;21.63;;
3922;SDS011;1976;51.694;6.256;2022-12-05T01:11:59;41.20;;;17.77;;
3922;SDS011;1976;51.694;6.256;2022-12-05T01:14:25;47.57;;;20.70;;
3922;SDS011;1976;51.694;6.256;2022-12-05T01:16:52;47.90;;;20.20;;
3922;SDS011;1976;51.694;6.256;2022-12-05T01:19:21;32.27;;;17.47;;
3922;SDS011;1976;51.694;6.256;2022-12-05T01:21:49;44.50;;;20.23;;
3922;SDS011;1976;51.694;6.256;2022-12-05T01:24:16;35.10;;;18.40;;
3922;SDS011;1976;51.694;6.256;2022-12-05T01:26:42;38.20;;;18.33;;
3922;SDS011;1976;51.694;6.256;2022-12-05T01:29:09;45.07;;;18.97;;
3922;SDS011;1976;51.694;6.256;2022-12-05T01:31:37;39.90;;;19.60;;
3922;SDS011;1976;51.694;6.256;2022-12-05T01:34:04;45.07;;;20.77;;
3922;SDS011;1976;51.694;6.256;2022-12-05T01:36:31;33.00;;;18.03;;
3922;SDS011;1976;51.694;6.256;2022-12-05T01:38:57;38.27;;;19.97;;
3922;SDS011;1976;51.694;6.256;2022-12-05T01:41:25;39.47;;;20.07;;
3922;SDS011;1976;51.694;6.256;2022-12-05T01:46:25;45.30;;;21.63;;
3922;SDS011;1976;51.694;6.256;2022-12-05T01:48:52;40.43;;;21.90;;
3922;SDS011;1976;51.694;6.256;2022-12-05T01:51:22;48.70;;;21.20;;
3922;SDS011;1976;51.694;6.256;2022-12-05T01:53:49;42.23;;;21.03;;
3922;SDS011;1976;51.694;6.256;2022-12-05T01:56:15;39.07;;;20.10;;
3922;SDS011;1976;51.694;6.256;2022-12-05T01:58:43;48.17;;;18.90;;
3922;SDS011;1976;51.694;6.256;2022-12-05T02:01:10;36.93;;;18.57;;
3922;SDS011;1976;51.694;6.256;2022-12-05T02:03:37;49.07;;;22.07;;
3922;SDS011;1976;51.694;6.256;2022-12-05T02:06:04;42.40;;;19.63;;
3922;SDS011;1976;51.694;6.256;2022-12-05T02:08:30;39.03;;;19.93;;
3922;SDS011;1976;51.694;6.256;2022-12-05T02:10:57;45.13;;;21.00;;
3922;SDS011;1976;51.694;6.256;2022-12-05T02:15:52;44.00;;;20.27;;
3922;SDS011;1976;51.694;6.256;2022-12-05T02:24:27;42.30;;;19.50;;
3922;SDS011;1976;51.694;6.256;2022-12-05T02:32:46;41.67;;;20.40;;
3922;SDS011;1976;51.694;6.256;2022-12-05T02:35:41;44.80;;;21.20;;
3922;SDS011;1976;51.694;6.256;2022-12-05T02:44:06;44.00;;;21.83;;
3922;SDS011;1976;51.694;6.256;2022-12-05T02:46:42;43.13;;;18.77;;
3922;SDS011;1976;51.694;6.256;2022-12-05T02:49:11;41.17;;;21.30;;
3922;SDS011;1976;51.694;6.256;2022-12-05T02:51:42;56.00;;;21.87;;
3922;SDS011;1976;51.694;6.256;2022-12-05T02:54:15;53.67;;;23.40;;
3922;SDS011;1976;51.694;6.256;2022-12-05T02:56:43;45.33;;;20.43;;
3922;SDS011;1976;51.694;6.256;2022-12-05T02:59:11;40.83;;;19.87;;
3922;SDS011;1976;51.694;6.256;2022-12-05T03:01:37;44.73;;;22.00;;
3922;SDS011;1976;51.694;6.256;2022-12-05T03:04:03;51.70;;;21.63;;
3922;SDS011;1976;51.694;6.256;2022-12-05T03:09:08;46.63;;;21.50;;
3922;SDS011;1976;51.694;6.256;2022-12-05T03:11:50;42.03;;;22.17;;
3922;SDS011;1976;51.694;6.256;2022-12-05T03:14:28;42.20;;;21.97;;
3922;SDS011;1976;51.694;6.256;2022-12-05T03:16:59;41.87;;;20.30;;
3922;SDS011;1976;51.694;6.256;2022-12-05T03:19:36;44.27;;;21.50;;
3922;SDS011;1976;51.694;6.256;2022-12-05T03:22:57;40.33;;;20.40;;
3922;SDS011;1976;51.694;6.256;2022-12-05T03:25:16;42.20;;;20.30;;
3922;SDS011;1976;51.694;6.256;2022-12-05T03:30:16;52.97;;;20.73;;
3922;SDS011;1976;51.694;6.256;2022-12-05T03:32:44;50.13;;;21.97;;
3922;SDS011;1976;51.694;6.256;2022-12-05T03:38:06;43.57;;;20.57;;
3922;SDS011;1976;51.694;6.256;2022-12-05T03:40:41;36.90;;;18.63;;
3922;SDS011;1976;51.694;6.256;2022-12-05T03:43:19;51.80;;;21.00;;
3922;SDS011;1976;51.694;6.256;2022-12-05T03:46:11;44.40;;;21.87;;
3922;SDS011;1976;51.694;6.256;2022-12-05T03:48:48;36.20;;;19.40;;
3922;SDS011;1976;51.694;6.256;2022-12-05T03:51:22;49.27;;;21.87;;
3922;SDS011;1976;51.694;6.256;2022-12-05T03:53:56;46.50;;;21.60;;
3922;SDS011;1976;51.694;6.256;2022-12-05T03:56:49;41.87;;;20.80;;
3922;SDS011;1976;51.694;6.256;2022-12-05T04:01:52;42.63;;;20.53;;
3922;SDS011;1976;51.694;6.256;2022-12-05T04:04:21;44.90;;;22.20;;
3922;SDS011;1976;51.694;6.256;2022-12-05T04:06:53;46.87;;;20.27;;
3922;SDS011;1976;51.694;6.256;2022-12-05T04:09:25;45.03;;;22.33;;
3922;SDS011;1976;51.694;6.256;2022-12-05T04:11:56;45.23;;;23.30;;
3922;SDS011;1976;51.694;6.256;2022-12-05T04:17:06;40.57;;;20.30;;
3922;SDS011;1976;51.694;6.256;2022-12-05T04:20:04;39.90;;;20.07;;
3922;SDS011;1976;51.694;6.256;2022-12-05T04:22:56;42.70;;;19.87;;
3922;SDS011;1976;51.694;6.256;2022-12-05T04:25:22;51.70;;;22.50;;
3922;SDS011;1976;51.694;6.256;2022-12-05T04:31:06;47.73;;;19.80;;
3922;SDS011;1976;51.694;6.256;2022-12-05T04:33:46;40.83;;;18.77;;
3922;SDS011;1976;51.694;6.256;2022-12-05T04:39:56;34.17;;;18.30;;
3922;SDS011;1976;51.694;6.256;2022-12-05T04:42:19;33.83;;;18.73;;
3922;SDS011;1976;51.694;6.256;2022-12-05T04:44:49;42.30;;;19.63;;
3922;SDS011;1976;51.694;6.256;2022-12-05T04:47:20;42.77;;;18.53;;
3922;SDS011;1976;51.694;6.256;2022-12-05T04:49:49;34.57;;;17.57;;
3922;SDS011;1976;51.694;6.256;2022-12-05T04:52:17;31.33;;;18.07;;
3922;SDS011;1976;51.694;6.256;2022-12-05T04:54:50;30.20;;;16.20;;
3922;SDS011;1976;51.694;6.256;2022-12-05T04:57:26;40.60;;;18.83;;
3922;SDS011;1976;51.694;6.256;2022-12-05T05:00:13;31.73;;;16.43;;
3922;SDS011;1976;51.694;6.256;2022-12-05T05:02:43;30.00;;;16.50;;
3922;SDS011;1976;51.694;6.256;2022-12-05T05:05:14;34.20;;;17.30;;
3922;SDS011;1976;51.694;6.256;2022-12-05T05:07:43;30.20;;;15.20;;
3922;SDS011;1976;51.694;6.256;2022-12-05T05:10:10;37.60;;;17.30;;
3922;SDS011;1976;51.694;6.256;2022-12-05T05:12:38;39.83;;;17.97;;
3922;SDS011;1976;51.694;6.256;2022-12-05T05:15:04;27.07;;;15.93;;
3922;SDS011;1976;51.694;6.256;2022-12-05T05:17:30;28.03;;;17.13;;
3922;SDS011;1976;51.694;6.256;2022-12-05T05:19:56;34.93;;;19.10;;
3922;SDS011;1976;51.694;6.256;2022-12-05T05:22:41;31.93;;;17.07;;
3922;SDS011;1976;51.694;6.256;2022-12-05T05:25:07;28.90;;;15.93;;
3922;SDS011;1976;51.694;6.256;2022-12-05T05:27:32;30.67;;;16.20;;
3922;SDS011;1976;51.694;6.256;2022-12-05T05:29:58;30.40;;;16.73;;
3922;SDS011;1976;51.694;6.256;2022-12-05T05:32:23;28.40;;;15.70;;
3922;SDS011;1976;51.694;6.256;2022-12-05T05:34:49;29.80;;;16.50;;
3922;SDS011;1976;51.694;6.256;2022-12-05T05:37:15;36.60;;;17.27;;
3922;SDS011;1976;51.694;6.256;2022-12-05T05:39:40;28.80;;;15.17;;
3922;SDS011;1976;51.694;6.256;2022-12-05T05:42:06;30.97;;;16.00;;
3922;SDS011;1976;51.694;6.256;2022-12-05T05:44:31;28.93;;;17.13;;
3922;SDS011;1976;51.694;6.256;2022-12-05T05:46:57;28.70;;;15.63;;
3922;SDS011;1976;51.694;6.256;2022-12-05T05:49:23;26.60;;;15.60;;
3922;SDS011;1976;51.694;6.256;2022-12-05T05:51:48;27.90;;;14.80;;
3922;SDS011;1976;51.694;6.256;2022-12-05T05:54:14;32.03;;;14.53;;
3922;SDS011;1976;51.694;6.256;2022-12-05T05:56:39;28.30;;;15.57;;
3922;SDS011;1976;51.694;6.256;2022-12-05T05:59:05;25.73;;;14.87;;
3922;SDS011;1976;51.694;6.256;2022-12-05T06:01:31;32.60;;;15.87;;
3922;SDS011;1976;51.694;6.256;2022-12-05T06:03:57;29.23;;;14.50;;
3922;SDS011;1976;51.694;6.256;2022-12-05T06:06:22;26.83;;;14.83;;
3922;SDS011;1976;51.694;6.256;2022-12-05T06:08:48;26.40;;;14.93;;
3922;SDS011;1976;51.694;6.256;2022-12-05T06:11:16;32.13;;;15.50;;
3922;SDS011;1976;51.694;6.256;2022-12-05T06:13:46;28.63;;;15.03;;
3922;SDS011;1976;51.694;6.256;2022-12-05T06:16:13;27.20;;;14.37;;
3922;SDS011;1976;51.694;6.256;2022-12-05T06:18:43;27.30;;;13.67;;
3922;SDS011;1976;51.694;6.256;2022-12-05T06:21:08;31.13;;;13.70;;
3922;SDS011;1976;51.694;6.256;2022-12-05T06:23:35;29.50;;;15.60;;
3922;SDS011;1976;51.694;6.256;2022-12-05T06:26:02;26.47;;;15.20;;
3922;SDS011;1976;51.694;6.256;2022-12-05T06:28:29;29.97;;;15.13;;
3922;SDS011;1976;51.694;6.256;2022-12-05T06:30:55;25.83;;;14.60;;
3922;SDS011;1976;51.694;6.256;2022-12-05T06:33:21;32.17;;;15.50;;
3922;SDS011;1976;51.694;6.256;2022-12-05T06:35:46;24.70;;;14.60;;
3922;SDS011;1976;51.694;6.256;2022-12-05T06:38:12;31.77;;;15.90;;
3922;SDS011;1976;51.694;6.256;2022-12-05T06:40:39;32.80;;;16.33;;
3922;SDS011;1976;51.694;6.256;2022-12-05T06:43:05;30.33;;;15.40;;
3922;SDS011;1976;51.694;6.256;2022-12-05T06:45:31;27.93;;;15.10;;
3922;SDS011;1976;51.694;6.256;2022-12-05T06:47:57;25.20;;;14.13;;
3922;SDS011;1976;51.694;6.256;2022-12-05T06:50:23;24.30;;;13.80;;
3922;SDS011;1976;51.694;6.256;2022-12-05T06:52:49;24.10;;;14.10;;
3922;SDS011;1976;51.694;6.256;2022-12-05T06:55:15;29.23;;;14.97;;
3922;SDS011;1976;51.694;6.256;2022-12-05T06:57:41;22.33;;;12.83;;
3922;SDS011;1976;51.694;6.256;2022-12-05T07:00:07;27.50;;;14.83;;
3922;SDS011;1976;51.694;6.256;2022-12-05T07:02:51;30.07;;;14.70;;
3922;SDS011;1976;51.694;6.256;2022-12-05T07:05:17;20.30;;;12.57;;
3922;SDS011;1976;51.694;6.256;2022-12-05T07:07:43;21.97;;;12.93;;
3922;SDS011;1976;51.694;6.256;2022-12-05T07:10:09;31.87;;;14.63;;
3922;SDS011;1976;51.694;6.256;2022-12-05T07:12:34;24.27;;;14.50;;
3922;SDS011;1976;51.694;6.256;2022-12-05T07:15:00;24.33;;;13.60;;
3922;SDS011;1976;51.694;6.256;2022-12-05T07:17:26;24.30;;;14.03;;
3922;SDS011;1976;51.694;6.256;2022-12-05T07:19:52;25.57;;;14.00;;
3922;SDS011;1976;51.694;6.256;2022-12-05T07:22:18;25.67;;;13.77;;
3922;SDS011;1976;51.694;6.256;2022-12-05T07:24:45;25.47;;;13.20;;
3922;SDS011;1976;51.694;6.256;2022-12-05T07:27:12;21.40;;;13.30;;
3922;SDS011;1976;51.694;6.256;2022-12-05T07:29:38;27.90;;;14.00;;
3922;SDS011;1976;51.694;6.256;2022-12-05T07:32:04;24.47;;;14.00;;
3922;SDS011;1976;51.694;6.256;2022-12-05T07:34:30;27.27;;;14.47;;
3922;SDS011;1976;51.694;6.256;2022-12-05T07:36:55;26.27;;;12.50;;
3922;SDS011;1976;51.694;6.256;2022-12-05T07:39:21;25.67;;;13.07;;
3922;SDS011;1976;51.694;6.256;2022-12-05T07:41:47;22.20;;;12.97;;
3922;SDS011;1976;51.694;6.256;2022-12-05T07:44:12;19.67;;;12.37;;
3922;SDS011;1976;51.694;6.256;2022-12-05T07:46:38;15.27;;;10.80;;
3922;SDS011;1976;51.694;6.256;2022-12-05T07:49:04;18.47;;;11.03;;
3922;SDS011;1976;51.694;6.256;2022-12-05T07:51:31;20.37;;;10.40;;
3922;SDS011;1976;51.694;6.256;2022-12-05T07:53:57;19.00;;;10.23;;
3922;SDS011;1976;51.694;6.256;2022-12-05T07:56:24;17.50;;;10.57;;
3922;SDS011;1976;51.694;6.256;2022-12-05T07:58:50;24.10;;;10.90;;
3922;SDS011;1976;51.694;6.256;2022-12-05T08:01:17;20.50;;;10.70;;
3922;SDS011;1976;51.694;6.256;2022-12-05T08:03:45;22.83;;;11.40;;
3922;SDS011;1976;51.694;6.256;2022-12-05T08:06:18;18.80;;;12.03;;
3922;SDS011;1976;51.694;6.256;2022-12-05T08:08:45;16.43;;;9.90;;
3922;SDS011;1976;51.694;6.256;2022-12-05T08:11:15;25.37;;;10.73;;
3922;SDS011;1976;51.694;6.256;2022-12-05T08:13:43;17.23;;;10.37;;
3922;SDS011;1976;51.694;6.256;2022-12-05T08:16:10;19.10;;;11.10;;
3922;SDS011;1976;51.694;6.256;2022-12-05T08:18:37;17.13;;;10.10;;
3922;SDS011;1976;51.694;6.256;2022-12-05T08:21:05;14.87;;;9.20;;
3922;SDS011;1976;51.694;6.256;2022-12-05T08:23:32;17.80;;;10.67;;
3922;SDS011;1976;51.694;6.256;2022-12-05T08:26:02;19.80;;;10.90;;
3922;SDS011;1976;51.694;6.256;2022-12-05T08:28:35;18.17;;;10.00;;
3922;SDS011;1976;51.694;6.256;2022-12-05T08:31:11;17.50;;;10.40;;
3922;SDS011;1976;51.694;6.256;2022-12-05T08:33:43;18.50;;;10.80;;
3922;SDS011;1976;51.694;6.256;2022-12-05T08:36:10;20.37;;;10.47;;
3922;SDS011;1976;51.694;6.256;2022-12-05T08:38:38;19.77;;;11.10;;
3922;SDS011;1976;51.694;6.256;2022-12-05T08:41:05;17.07;;;10.47;;
3922;SDS011;1976;51.694;6.256;2022-12-05T08:43:33;16.30;;;8.90;;
3922;SDS011;1976;51.694;6.256;2022-12-05T08:45:59;13.03;;;8.97;;
3922;SDS011;1976;51.694;6.256;2022-12-05T08:48:25;11.40;;;8.03;;
3922;SDS011;1976;51.694;6.256;2022-12-05T08:50:53;10.07;;;6.63;;
3922;SDS011;1976;51.694;6.256;2022-12-05T08:53:18;14.60;;;9.13;;
3922;SDS011;1976;51.694;6.256;2022-12-05T08:55:44;12.60;;;8.00;;
3922;SDS011;1976;51.694;6.256;2022-12-05T08:58:10;13.50;;;8.50;;
3922;SDS011;1976;51.694;6.256;2022-12-05T09:00:36;11.00;;;7.70;;
3922;SDS011;1976;51.694;6.256;2022-12-05T09:03:02;7.97;;;6.50;;
3922;SDS011;1976;51.694;6.256;2022-12-05T09:05:28;9.47;;;7.13;;
3922;SDS011;1976;51.694;6.256;2022-12-05T09:07:54;9.30;;;7.40;;
3922;SDS011;1976;51.694;6.256;2022-12-05T09:10:20;15.83;;;7.00;;
3922;SDS011;1976;51.694;6.256;2022-12-05T09:12:45;9.50;;;7.30;;
3922;SDS011;1976;51.694;6.256;2022-12-05T09:15:12;15.03;;;8.00;;
3922;SDS011;1976;51.694;6.256;2022-12-05T09:17:38;11.90;;;8.47;;
3922;SDS011;1976;51.694;6.256;2022-12-05T09:20:04;10.13;;;7.50;;
3922;SDS011;1976;51.694;6.256;2022-12-05T09:22:31;12.70;;;7.37;;
3922;SDS011;1976;51.694;6.256;2022-12-05T09:24:57;10.17;;;7.53;;
3922;SDS011;1976;51.694;6.256;2022-12-05T09:27:24;10.63;;;6.87;;
3922;SDS011;1976;51.694;6.256;2022-12-05T09:29:51;8.27;;;5.90;;
3922;SDS011;1976;51.694;6.256;2022-12-05T09:32:17;8.13;;;6.37;;
3922;SDS011;1976;51.694;6.256;2022-12-05T09:34:43;10.37;;;6.47;;
3922;SDS011;1976;51.694;6.256;2022-12-05T09:37:08;5.20;;;4.50;;
3922;SDS011;1976;51.694;6.256;2022-12-05T09:39:34;9.80;;;6.07;;
3922;SDS011;1976;51.694;6.256;2022-12-05T09:45:04;10.57;;;6.30;;
3922;SDS011;1976;51.694;6.256;2022-12-05T09:50:23;9.50;;;6.20;;
3922;SDS011;1976;51.694;6.256;2022-12-05T09:55:34;8.03;;;6.30;;
3922;SDS011;1976;51.694;6.256;2022-12-05T09:58:12;16.63;;;6.50;;
3922;SDS011;1976;51.694;6.256;2022-12-05T10:00:46;9.73;;;6.90;;
3922;SDS011;1976;51.694;6.256;2022-12-05T10:11:27;7.97;;;5.90;;
3922;SDS011;1976;51.694;6.256;2022-12-05T10:14:00;11.27;;;6.50;;
3922;SDS011;1976;51.694;6.256;2022-12-05T10:16:37;10.23;;;6.43;;
3922;SDS011;1976;51.694;6.256;2022-12-05T10:19:44;7.83;;;6.40;;
3922;SDS011;1976;51.694;6.256;2022-12-05T10:22:15;16.13;;;7.00;;
3922;SDS011;1976;51.694;6.256;2022-12-05T10:25:03;8.90;;;6.80;;
3922;SDS011;1976;51.694;6.256;2022-12-05T10:27:39;7.13;;;6.43;;
3922;SDS011;1976;51.694;6.256;2022-12-05T10:30:20;8.00;;;6.30;;
3922;SDS011;1976;51.694;6.256;2022-12-05T10:33:04;9.17;;;6.50;;
3922;SDS011;1976;51.694;6.256;2022-12-05T10:35:43;11.93;;;6.47;;
3922;SDS011;1976;51.694;6.256;2022-12-05T10:38:10;9.73;;;6.30;;
3922;SDS011;1976;51.694;6.256;2022-12-05T10:40:37;8.67;;;6.23;;
3922;SDS011;1976;51.694;6.256;2022-12-05T10:43:09;11.60;;;7.67;;
3922;SDS011;1976;51.694;6.256;2022-12-05T10:45:41;11.50;;;6.80;;
3922;SDS011;1976;51.694;6.256;2022-12-05T10:48:13;9.67;;;6.50;;
3922;SDS011;1976;51.694;6.256;2022-12-05T10:50:41;8.40;;;5.93;;
3922;SDS011;1976;51.694;6.256;2022-12-05T10:53:09;7.23;;;6.40;;
3922;SDS011;1976;51.694;6.256;2022-12-05T10:55:40;10.50;;;6.90;;
3922;SDS011;1976;51.694;6.256;2022-12-05T10:58:17;9.60;;;6.37;;
3922;SDS011;1976;51.694;6.256;2022-12-05T11:01:13;8.87;;;6.47;;
3922;SDS011;1976;51.694;6.256;2022-12-05T11:03:40;9.10;;;6.60;;
3922;SDS011;1976;51.694;6.256;2022-12-05T11:08:40;9.43;;;6.30;;
3922;SDS011;1976;51.694;6.256;2022-12-05T11:11:09;10.27;;;6.77;;
3922;SDS011;1976;51.694;6.256;2022-12-05T11:13:50;9.93;;;7.40;;
3922;SDS011;1976;51.694;6.256;2022-12-05T11:16:22;11.53;;;7.67;;
3922;SDS011;1976;51.694;6.256;2022-12-05T11:18:49;13.93;;;7.40;;
3922;SDS011;1976;51.694;6.256;2022-12-05T11:21:15;12.47;;;7.57;;
3922;SDS011;1976;51.694;6.256;2022-12-05T11:23:44;16.77;;;10.07;;
3922;SDS011;1976;51.694;6.256;2022-12-05T11:26:17;17.87;;;8.83;;
3922;SDS011;1976;51.694;6.256;2022-12-05T11:28:43;14.97;;;8.67;;
3922;SDS011;1976;51.694;6.256;2022-12-05T11:33:41;18.57;;;9.40;;
3922;SDS011;1976;51.694;6.256;2022-12-05T11:36:22;12.27;;;8.17;;
3922;SDS011;1976;51.694;6.256;2022-12-05T11:39:00;17.23;;;8.60;;
3922;SDS011;1976;51.694;6.256;2022-12-05T11:54:56;13.63;;;8.20;;
3922;SDS011;1976;51.694;6.256;2022-12-05T11:57:37;17.60;;;9.30;;
3922;SDS011;1976;51.694;6.256;2022-12-05T12:30:14;15.70;;;7.47;;
3922;SDS011;1976;51.694;6.256;2022-12-05T12:35:27;9.83;;;6.63;;
3922;SDS011;1976;51.694;6.256;2022-12-05T12:43:51;7.43;;;6.00;;
3922;SDS011;1976;51.694;6.256;2022-12-05T12:46:56;7.67;;;6.10;;
3922;SDS011;1976;51.694;6.256;2022-12-05T12:52:21;8.27;;;5.83;;
3922;SDS011;1976;51.694;6.256;2022-12-05T12:55:00;6.83;;;5.20;;
3922;SDS011;1976;51.694;6.256;2022-12-05T13:03:21;7.93;;;5.80;;
3922;SDS011;1976;51.694;6.256;2022-12-05T13:06:09;12.03;;;6.17;;
3922;SDS011;1976;51.694;6.256;2022-12-05T13:08:58;9.07;;;6.60;;
3922;SDS011;1976;51.694;6.256;2022-12-05T13:11:34;6.57;;;5.70;;
3922;SDS011;1976;51.694;6.256;2022-12-05T13:14:03;8.17;;;5.67;;
3922;SDS011;1976;51.694;6.256;2022-12-05T13:16:36;6.03;;;3.97;;
3922;SDS011;1976;51.694;6.256;2022-12-05T13:19:05;0.70;;;0.70;;
3922;SDS011;1976;51.694;6.256;2022-12-05T13:22:02;0.60;;;0.60;;
3922;SDS011;1976;51.694;6.256;2022-12-05T13:24:30;0.70;;;0.70;;
3922;SDS011;1976;51.694;6.256;2022-12-05T13:26:57;5.40;;;2.40;;
3922;SDS011;1976;51.694;6.256;2022-12-05T13:29:32;0.70;;;0.70;;
3922;SDS011;1976;51.694;6.256;2022-12-05T13:32:00;0.60;;;0.60;;
3922;SDS011;1976;51.694;6.256;2022-12-05T13:36:53;0.60;;;0.60;;
3922;SDS011;1976;51.694;6.256;2022-12-05T13:39:49;0.60;;;0.60;;
3922;SDS011;1976;51.694;6.256;2022-12-05T13:42:35;0.60;;;0.60;;
3922;SDS011;1976;51.694;6.256;2022-12-05T13:53:22;0.60;;;0.60;;
3922;SDS011;1976;51.694;6.256;2022-12-05T13:58:48;0.60;;;0.60;;
3922;SDS011;1976;51.694;6.256;2022-12-05T14:17:21;0.90;;;0.90;;
3922;SDS011;1976;51.694;6.256;2022-12-05T14:20:27;0.70;;;0.70;;
3922;SDS011;1976;51.694;6.256;2022-12-05T14:29:27;0.63;;;0.63;;
3922;SDS011;1976;51.694;6.256;2022-12-05T14:31:37;0.90;;;0.90;;
3922;SDS011;1976;51.694;6.256;2022-12-05T14:39:38;0.60;;;0.60;;
3922;SDS011;1976;51.694;6.256;2022-12-05T14:42:26;0.70;;;0.70;;
3922;SDS011;1976;51.694;6.256;2022-12-05T14:44:57;0.60;;;0.60;;
3922;SDS011;1976;51.694;6.256;2022-12-05T14:47:26;0.60;;;0.60;;
3922;SDS011;1976;51.694;6.256;2022-12-05T14:49:59;0.63;;;0.63;;
3922;SDS011;1976;51.694;6.256;2022-12-05T14:52:44;3.33;;;2.97;;
3922;SDS011;1976;51.694;6.256;2022-12-05T14:55:44;0.60;;;0.60;;
3922;SDS011;1976;51.694;6.256;2022-12-05T14:58:33;1.53;;;1.47;;
3922;SDS011;1976;51.694;6.256;2022-12-05T15:03:36;0.60;;;0.60;;
3922;SDS011;1976;51.694;6.256;2022-12-05T15:06:05;0.60;;;0.60;;
3922;SDS011;1976;51.694;6.256;2022-12-05T15:08:44;0.70;;;0.70;;
3922;SDS011;1976;51.694;6.256;2022-12-05T15:11:16;0.67;;;0.67;;
3922;SDS011;1976;51.694;6.256;2022-12-05T15:16:42;0.70;;;0.70;;
3922;SDS011;1976;51.694;6.256;2022-12-05T15:19:16;0.60;;;0.60;;
3922;SDS011;1976;51.694;6.256;2022-12-05T15:21:51;0.60;;;0.60;;
3922;SDS011;1976;51.694;6.256;2022-12-05T15:24:20;0.60;;;0.60;;
3922;SDS011;1976;51.694;6.256;2022-12-05T15:29:23;0.60;;;0.60;;
3922;SDS011;1976;51.694;6.256;2022-12-05T15:34:43;0.60;;;0.60;;
3922;SDS011;1976;51.694;6.256;2022-12-05T15:37:26;0.70;;;0.70;;
3922;SDS011;1976;51.694;6.256;2022-12-05T15:40:13;0.60;;;0.60;;
3922;SDS011;1976;51.694;6.256;2022-12-05T15:42:45;0.60;;;0.60;;
3922;SDS011;1976;51.694;6.256;2022-12-05T15:45:16;0.63;;;0.63;;
3922;SDS011;1976;51.694;6.256;2022-12-05T15:47:48;0.70;;;0.70;;
3922;SDS011;1976;51.694;6.256;2022-12-05T15:50:24;0.67;;;0.67;;
3922;SDS011;1976;51.694;6.256;2022-12-05T15:53:04;0.70;;;0.70;;
3922;SDS011;1976;51.694;6.256;2022-12-05T16:00:37;0.70;;;0.70;;
3922;SDS011;1976;51.694;6.256;2022-12-05T16:03:13;0.60;;;0.60;;
3922;SDS011;1976;51.694;6.256;2022-12-05T16:08:28;0.67;;;0.67;;
3922;SDS011;1976;51.694;6.256;2022-12-05T16:11:10;0.60;;;0.60;;
3922;SDS011;1976;51.694;6.256;2022-12-05T16:13:43;0.60;;;0.60;;
3922;SDS011;1976;51.694;6.256;2022-12-05T16:16:16;0.60;;;0.60;;
3922;SDS011;1976;51.694;6.256;2022-12-05T16:18:52;0.60;;;0.60;;
3922;SDS011;1976;51.694;6.256;2022-12-05T16:21:35;1.03;;;1.03;;
3922;SDS011;1976;51.694;6.256;2022-12-05T16:24:26;0.60;;;0.60;;
3922;SDS011;1976;51.694;6.256;2022-12-05T16:32:45;0.60;;;0.60;;
3922;SDS011;1976;51.694;6.256;2022-12-05T16:35:29;0.70;;;0.70;;
3922;SDS011;1976;51.694;6.256;2022-12-05T16:45:57;0.60;;;0.60;;
3922;SDS011;1976;51.694;6.256;2022-12-05T16:48:35;0.60;;;0.60;;
3922;SDS011;1976;51.694;6.256;2022-12-05T16:51:22;0.70;;;0.70;;
3922;SDS011;1976;51.694;6.256;2022-12-05T16:53:52;0.70;;;0.70;;
3922;SDS011;1976;51.694;6.256;2022-12-05T16:56:21;0.63;;;0.63;;
3922;SDS011;1976;51.694;6.256;2022-12-05T16:58:49;0.87;;;0.87;;
3922;SDS011;1976;51.694;6.256;2022-12-05T17:01:18;0.60;;;0.60;;
3922;SDS011;1976;51.694;6.256;2022-12-05T17:03:49;0.70;;;0.70;;
3922;SDS011;1976;51.694;6.256;2022-12-05T17:06:15;0.70;;;0.70;;
3922;SDS011;1976;51.694;6.256;2022-12-05T17:08:42;0.70;;;0.70;;
3922;SDS011;1976;51.694;6.256;2022-12-05T17:11:13;0.70;;;0.70;;
3922;SDS011;1976;51.694;6.256;2022-12-05T17:13:45;0.60;;;0.60;;
3922;SDS011;1976;51.694;6.256;2022-12-05T17:16:12;0.70;;;0.70;;
3922;SDS011;1976;51.694;6.256;2022-12-05T17:18:39;1.07;;;1.07;;
3922;SDS011;1976;51.694;6.256;2022-12-05T17:21:04;10.23;;;6.13;;
3922;SDS011;1976;51.694;6.256;2022-12-05T17:23:30;0.70;;;0.70;;
3922;SDS011;1976;51.694;6.256;2022-12-05T17:25:56;0.60;;;0.60;;
3922;SDS011;1976;51.694;6.256;2022-12-05T17:28:23;0.70;;;0.70;;
3922;SDS011;1976;51.694;6.256;2022-12-05T17:30:49;0.60;;;0.60;;
3922;SDS011;1976;51.694;6.256;2022-12-05T17:33:16;0.70;;;0.70;;
3922;SDS011;1976;51.694;6.256;2022-12-05T17:35:43;0.60;;;0.60;;
3922;SDS011;1976;51.694;6.256;2022-12-05T17:38:09;0.63;;;0.63;;
3922;SDS011;1976;51.694;6.256;2022-12-05T17:40:35;0.70;;;0.70;;
3922;SDS011;1976;51.694;6.256;2022-12-05T17:43:02;0.60;;;0.60;;
3922;SDS011;1976;51.694;6.256;2022-12-05T17:45:28;0.60;;;0.60;;
3922;SDS011;1976;51.694;6.256;2022-12-05T17:47:54;0.70;;;0.70;;
3922;SDS011;1976;51.694;6.256;2022-12-05T17:50:21;0.70;;;0.70;;
3922;SDS011;1976;51.694;6.256;2022-12-05T17:52:48;0.60;;;0.60;;
3922;SDS011;1976;51.694;6.256;2022-12-05T17:55:16;0.60;;;0.60;;
3922;SDS011;1976;51.694;6.256;2022-12-05T17:57:45;0.70;;;0.70;;
3922;SDS011;1976;51.694;6.256;2022-12-05T18:00:12;0.70;;;0.70;;
3922;SDS011;1976;51.694;6.256;2022-12-05T18:02:39;0.70;;;0.70;;
3922;SDS011;1976;51.694;6.256;2022-12-05T18:05:05;0.60;;;0.60;;
3922;SDS011;1976;51.694;6.256;2022-12-05T18:07:31;0.60;;;0.60;;
3922;SDS011;1976;51.694;6.256;2022-12-05T18:09:57;0.70;;;0.70;;
3922;SDS011;1976;51.694;6.256;2022-12-05T18:12:22;0.70;;;0.70;;
3922;SDS011;1976;51.694;6.256;2022-12-05T18:14:48;0.60;;;0.60;;
3922;SDS011;1976;51.694;6.256;2022-12-05T18:17:14;0.70;;;0.70;;
3922;SDS011;1976;51.694;6.256;2022-12-05T18:19:40;0.60;;;0.60;;
3922;SDS011;1976;51.694;6.256;2022-12-05T18:22:06;0.70;;;0.70;;
3922;SDS011;1976;51.694;6.256;2022-12-05T18:24:34;0.60;;;0.60;;
3922;SDS011;1976;51.694;6.256;2022-12-05T18:27:00;0.60;;;0.60;;
3922;SDS011;1976;51.694;6.256;2022-12-05T18:29:25;0.63;;;0.63;;
3922;SDS011;1976;51.694;6.256;2022-12-05T18:31:51;0.70;;;0.70;;
3922;SDS011;1976;51.694;6.256;2022-12-05T18:34:17;0.60;;;0.60;;
3922;SDS011;1976;51.694;6.256;2022-12-05T18:36:42;0.60;;;0.60;;
3922;SDS011;1976;51.694;6.256;2022-12-05T18:39:10;0.70;;;0.70;;